Injune Post Office, Australia
Current Conditions -  °F | °C
As of 8:00 AM on Tuesday 23 Dec 2014 (Local Time) from YBCV Reporting Station
Clear Clear  
Wind Chill: 81°   Ceiling: Unl
Heat Index: 81°   Visibility: 6mi
Dew Point: 61°   Wind: 14mph
Humidity: 51%   Direction: 20°NNE
Pressure: 29.94"   Gusts: NA
Location:  25.85°S, 148.57°E
Report Text: YBCV 222200Z 02012KT CAVOK 27/16 Q1014
Loading
Personal Weather Stations






























Interactive Weather Map New forecast layout! Learn more

10-Day Weather Forecast

Advertisements
Track Severe Weather on mobile